Main page
METAR-TAF:

METAR-TAF

Airports :

Celle Air Base

Celle, Germany

latitude: 52-36N, longitude: 010-01E, elevation: 39 m

Current weather observation

The report was made 31 minutes ago, at 12:20 UTC
Wind 7 kt from the North/Northwest
Temperature 20°C
Humidity 30%
Pressure 1031 hPa
Visibility 10 km or more
Few clouds at a height of 6000 ft

METAR: ETHC 281220Z 33007KT 9999 FEW060 20/02 Q1031 BLU+BLU+

Time: 14:51 (12:51 UTC)

Forecast

The report was made 2 hours and 22 minutes ago, at 10:29 UTC
Forecast valid from 28 at 11 UTC to 28 at 20 UTC
Wind 10 kt from the North/Northwest
Visibility 10 km or more
Scattered clouds at a height of 26000 ft

TAF: ETHC 281029Z 2811/2820 34010KT 9999 NSW SCT260

Weather observations and forecasts of more than 4000 airports (METAR and TAF reports).

The available stations are represented by yellow and red dots on the map.

Hover mouse over dot to see the name of the station.

Then click to see weather observations and forecasts.

To change the map : click on the green buttons with a black cross to zoom in, on the green button with a dash to zoom out, or on the green arrows for adjacent maps.


METAR-TAF: